createdAt,value
2022-08-28T00:01:23.683Z,20.96
2022-08-28T00:03:50.210Z,20.94
2022-08-28T00:06:17.036Z,20.94
2022-08-28T00:08:43.575Z,20.91
2022-08-28T00:11:10.245Z,20.90
2022-08-28T00:13:36.752Z,20.88
2022-08-28T00:16:04.357Z,20.89
2022-08-28T00:18:31.642Z,20.85
2022-08-28T00:20:58.927Z,20.82
2022-08-28T00:23:26.401Z,20.82
2022-08-28T00:26:08.935Z,20.82
2022-08-28T00:28:35.523Z,20.82
2022-08-28T00:31:02.158Z,20.81
2022-08-28T00:33:34.776Z,20.81
2022-08-28T00:36:02.857Z,20.80
2022-08-28T00:38:30.579Z,20.80
2022-08-28T00:41:03.671Z,20.78
2022-08-28T00:43:48.226Z,20.79
2022-08-28T00:46:21.086Z,20.79
2022-08-28T00:48:48.267Z,20.79
2022-08-28T00:51:17.426Z,20.80
2022-08-28T00:53:44.757Z,20.80
2022-08-28T00:56:13.959Z,20.79
2022-08-28T00:58:43.479Z,20.79
2022-08-28T01:01:10.176Z,20.80
2022-08-28T01:03:37.392Z,20.80
2022-08-28T01:06:04.849Z,20.79
2022-08-28T01:08:32.400Z,20.79
2022-08-28T01:11:02.947Z,20.79
2022-08-28T01:13:30.619Z,20.80
2022-08-28T01:15:57.648Z,20.81
2022-08-28T01:18:26.607Z,20.83
2022-08-28T01:21:28.566Z,20.80
2022-08-28T01:24:24.869Z,20.79
2022-08-28T01:26:51.438Z,20.81
2022-08-28T01:29:18.310Z,20.83
2022-08-28T01:31:44.880Z,20.82
2022-08-28T01:34:12.776Z,20.81
2022-08-28T01:36:39.894Z,20.80
2022-08-28T01:39:13.106Z,20.79
2022-08-28T01:41:42.491Z,20.79
2022-08-28T01:44:09.208Z,20.80
2022-08-28T01:46:36.153Z,20.79
2022-08-28T01:49:04.011Z,20.79
2022-08-28T01:51:35.018Z,20.78
2022-08-28T01:54:05.093Z,20.78
2022-08-28T01:56:32.068Z,20.78
2022-08-28T01:59:00.319Z,20.78
2022-08-28T02:01:26.961Z,20.79
2022-08-28T02:03:53.732Z,20.80
2022-08-28T02:06:20.592Z,20.80
2022-08-28T02:08:47.251Z,20.80
2022-08-28T02:11:14.012Z,20.81
2022-08-28T02:13:40.660Z,20.81
2022-08-28T02:16:09.727Z,20.83
2022-08-28T02:18:37.476Z,20.86
2022-08-28T02:21:06.495Z,20.86
2022-08-28T02:23:33.169Z,20.88
2022-08-28T02:26:00.005Z,20.89
2022-08-28T02:28:26.548Z,20.90
2022-08-28T02:30:53.161Z,20.91
2022-08-28T02:33:19.769Z,20.93
2022-08-28T02:35:46.420Z,20.93
2022-08-28T02:38:13.135Z,20.95
2022-08-28T02:40:40.249Z,20.97
2022-08-28T02:43:07.212Z,20.96
2022-08-28T02:45:33.830Z,20.98
2022-08-28T02:48:00.709Z,21.00
2022-08-28T02:50:28.505Z,21.01
2022-08-28T02:52:55.135Z,21.00
2022-08-28T02:55:22.384Z,21.02
2022-08-28T02:57:49.334Z,21.02
2022-08-28T03:00:20.887Z,21.05
2022-08-28T03:02:48.050Z,21.07
2022-08-28T03:05:17.973Z,21.08
2022-08-28T03:07:45.221Z,21.10
2022-08-28T03:10:11.838Z,21.10
2022-08-28T03:12:39.028Z,21.11
2022-08-28T03:15:07.415Z,21.11
2022-08-28T03:17:35.693Z,21.13
2022-08-28T03:20:05.160Z,21.14
2022-08-28T03:22:31.837Z,21.15
2022-08-28T03:24:58.482Z,21.15
2022-08-28T03:27:25.047Z,21.15
2022-08-28T03:29:51.599Z,21.14
2022-08-28T03:32:18.193Z,21.14
2022-08-28T03:34:44.755Z,21.13
2022-08-28T03:37:11.358Z,21.14
2022-08-28T03:39:37.898Z,21.12
2022-08-28T03:42:04.702Z,21.12
2022-08-28T03:44:31.239Z,21.11
2022-08-28T03:46:58.181Z,21.10
2022-08-28T03:49:24.696Z,21.10
2022-08-28T03:51:51.209Z,21.10
2022-08-28T03:54:17.845Z,21.09
2022-08-28T03:56:44.420Z,21.09
2022-08-28T03:59:10.977Z,21.08
2022-08-28T04:01:37.704Z,21.08
2022-08-28T04:04:04.863Z,21.09
2022-08-28T04:06:31.440Z,21.09
2022-08-28T04:09:00.170Z,21.08
2022-08-28T04:11:27.200Z,21.07
2022-08-28T04:13:53.782Z,21.08
2022-08-28T04:16:20.555Z,21.07
2022-08-28T04:18:49.193Z,21.07
2022-08-28T04:21:17.468Z,21.06
2022-08-28T04:23:45.184Z,21.07
2022-08-28T04:26:14.693Z,21.06
2022-08-28T04:28:42.283Z,21.09
2022-08-28T04:31:09.808Z,21.08
2022-08-28T04:33:37.516Z,21.10
2022-08-28T04:36:06.446Z,21.11
2022-08-28T04:38:33.860Z,21.11
2022-08-28T04:41:04.666Z,21.11
2022-08-28T04:43:31.578Z,21.12
2022-08-28T04:45:58.758Z,21.14
2022-08-28T04:48:25.987Z,21.15
2022-08-28T04:50:52.523Z,21.14
2022-08-28T04:53:20.660Z,21.17
2022-08-28T04:55:54.965Z,21.19
2022-08-28T04:58:24.250Z,21.21
2022-08-28T05:00:52.661Z,21.23
2022-08-28T05:03:19.314Z,21.26
2022-08-28T05:05:48.593Z,21.28
2022-08-28T05:08:17.401Z,21.30
2022-08-28T05:10:44.556Z,21.33
2022-08-28T05:13:12.142Z,21.36
2022-08-28T05:15:43.906Z,21.37
2022-08-28T05:18:12.243Z,21.43
2022-08-28T05:20:41.261Z,21.45
2022-08-28T05:23:07.995Z,21.47
2022-08-28T05:25:40.383Z,21.50
2022-08-28T05:28:11.454Z,21.52
2022-08-28T05:30:40.971Z,21.53
2022-08-28T05:33:08.561Z,21.54
2022-08-28T05:35:37.049Z,21.54
2022-08-28T05:38:04.304Z,21.55
2022-08-28T05:40:31.270Z,21.55
2022-08-28T05:42:57.924Z,21.54
2022-08-28T05:45:24.465Z,21.56
2022-08-28T05:47:51.248Z,21.57
2022-08-28T05:50:17.978Z,21.55
2022-08-28T05:52:44.588Z,21.53
2022-08-28T05:55:12.992Z,21.53
2022-08-28T05:57:40.142Z,21.53
2022-08-28T06:00:07.971Z,21.52
2022-08-28T06:02:34.563Z,21.52
2022-08-28T06:05:01.767Z,21.51
2022-08-28T06:07:28.441Z,21.50
2022-08-28T06:09:55.031Z,21.51
2022-08-28T06:12:21.571Z,21.53
2022-08-28T06:14:48.171Z,21.53
2022-08-28T06:17:14.772Z,21.54
2022-08-28T06:19:41.843Z,21.54
2022-08-28T06:22:08.724Z,21.55
2022-08-28T06:24:35.863Z,21.58
2022-08-28T06:27:02.414Z,21.58
2022-08-28T06:29:29.700Z,21.59
2022-08-28T06:32:02.241Z,21.60
2022-08-28T06:34:28.992Z,21.61
2022-08-28T06:36:55.607Z,21.61
2022-08-28T06:39:22.722Z,21.63
2022-08-28T06:41:49.455Z,21.62
2022-08-28T06:44:18.087Z,21.63
2022-08-28T06:46:44.664Z,21.64
2022-08-28T06:49:11.336Z,21.65
2022-08-28T06:51:39.164Z,21.68
2022-08-28T06:54:06.264Z,21.69
2022-08-28T06:56:33.927Z,21.71
2022-08-28T06:59:00.751Z,21.76
2022-08-28T07:01:33.736Z,21.78
2022-08-28T07:04:04.069Z,21.83
2022-08-28T07:06:36.775Z,21.84
2022-08-28T07:09:06.464Z,21.89
2022-08-28T07:11:34.794Z,21.92
2022-08-28T07:14:02.032Z,21.96
2022-08-28T07:16:35.085Z,22.00
2022-08-28T07:19:01.657Z,22.06
2022-08-28T07:21:28.253Z,22.11
2022-08-28T07:23:55.006Z,22.17
2022-08-28T07:26:23.988Z,22.21
2022-08-28T07:28:51.732Z,22.25
2022-08-28T07:31:27.649Z,22.26
2022-08-28T07:33:55.570Z,22.30
2022-08-28T07:36:29.848Z,22.32
2022-08-28T07:38:58.841Z,22.37
2022-08-28T07:41:29.689Z,22.37
2022-08-28T07:43:57.088Z,22.37
2022-08-28T07:46:23.662Z,22.35
2022-08-28T07:48:50.293Z,22.36
2022-08-28T07:51:16.936Z,22.38
2022-08-28T07:53:43.547Z,22.37
2022-08-28T07:56:10.060Z,22.33
2022-08-28T07:58:36.703Z,22.27
2022-08-28T08:01:03.825Z,22.27
2022-08-28T08:03:31.641Z,22.27
2022-08-28T08:06:00.271Z,22.13
2022-08-28T08:08:26.875Z,22.18
2022-08-28T08:11:11.282Z,22.13
2022-08-28T08:13:45.358Z,22.13
2022-08-28T08:16:15.637Z,22.13
2022-08-28T08:18:42.324Z,22.12
2022-08-28T08:21:11.983Z,22.18
2022-08-28T08:23:39.113Z,22.22
2022-08-28T08:26:07.736Z,22.27
2022-08-28T08:28:36.138Z,22.36
2022-08-28T08:31:24.529Z,22.38
2022-08-28T08:33:54.887Z,22.41
2022-08-28T08:36:23.939Z,22.45
2022-08-28T08:38:59.630Z,22.45
2022-08-28T08:41:46.286Z,22.44
2022-08-28T08:44:21.702Z,22.45
2022-08-28T08:47:16.536Z,22.45
2022-08-28T08:49:56.819Z,22.46
2022-08-28T08:52:34.877Z,22.48
2022-08-28T08:55:16.570Z,22.51
2022-08-28T08:57:49.223Z,22.49
2022-08-28T09:00:17.133Z,22.50
2022-08-28T09:02:53.220Z,22.47
2022-08-28T09:05:26.325Z,22.46
2022-08-28T09:07:57.656Z,22.46
2022-08-28T09:10:33.679Z,22.48
2022-08-28T09:13:18.744Z,22.52
2022-08-28T09:15:48.769Z,22.58
2022-08-28T09:18:24.631Z,22.63
2022-08-28T09:20:56.831Z,22.68
2022-08-28T09:23:24.981Z,22.75
2022-08-28T09:25:54.383Z,22.79
2022-08-28T09:28:29.519Z,22.85
2022-08-28T09:31:07.341Z,22.90
2022-08-28T09:33:43.503Z,22.83
2022-08-28T09:36:28.407Z,22.97
2022-08-28T09:39:20.831Z,23.03
2022-08-28T09:42:01.207Z,23.08
2022-08-28T09:44:27.860Z,23.12
2022-08-28T09:46:54.697Z,23.15
2022-08-28T09:49:30.310Z,23.15
2022-08-28T09:51:58.567Z,23.18
2022-08-28T09:54:34.458Z,23.17
2022-08-28T09:57:01.595Z,23.21
2022-08-28T09:59:29.472Z,23.20
2022-08-28T10:02:20.195Z,23.21
2022-08-28T10:05:07.905Z,23.17
2022-08-28T10:07:59.917Z,23.14
2022-08-28T10:10:49.736Z,23.11
2022-08-28T10:13:34.370Z,23.07
2022-08-28T10:16:10.070Z,23.05
2022-08-28T10:18:58.165Z,22.99
2022-08-28T10:21:29.406Z,22.91
2022-08-28T10:24:03.515Z,22.84
2022-08-28T10:26:55.493Z,22.74
2022-08-28T10:29:27.727Z,22.67
2022-08-28T10:32:38.790Z,22.60
2022-08-28T10:35:24.396Z,22.55
2022-08-28T10:38:40.140Z,22.46
2022-08-28T10:41:16.991Z,22.46
2022-08-28T10:43:49.280Z,22.42
2022-08-28T10:46:28.306Z,22.34
2022-08-28T10:49:01.476Z,22.26
2022-08-28T10:51:52.625Z,22.17
2022-08-28T10:54:30.078Z,22.07
2022-08-28T10:57:04.984Z,22.00
2022-08-28T10:59:34.677Z,21.95
2022-08-28T11:02:13.088Z,21.92
2022-08-28T11:04:40.031Z,21.89
2022-08-28T11:07:11.340Z,21.85
2022-08-28T11:09:45.532Z,21.80
2022-08-28T11:12:18.178Z,21.80
2022-08-28T11:14:48.487Z,21.79
2022-08-28T11:17:24.137Z,21.78
2022-08-28T11:19:53.492Z,21.79
2022-08-28T11:22:24.730Z,21.79
2022-08-28T11:25:18.086Z,21.79
2022-08-28T11:28:19.604Z,21.78
2022-08-28T11:31:07.909Z,21.81
2022-08-28T11:33:41.909Z,21.79
2022-08-28T11:36:18.448Z,21.76
2022-08-28T11:38:44.956Z,21.77
2022-08-28T11:41:31.895Z,21.74
2022-08-28T11:44:04.193Z,21.76
2022-08-28T11:46:33.399Z,21.78
2022-08-28T11:49:05.296Z,21.80
2022-08-28T11:51:46.951Z,21.82
2022-08-28T11:54:35.266Z,21.84
2022-08-28T11:57:14.649Z,21.86
2022-08-28T12:00:01.523Z,21.88
2022-08-28T12:02:33.637Z,21.91
2022-08-28T12:05:00.299Z,21.94
2022-08-28T12:07:35.203Z,21.97
2022-08-28T12:10:05.146Z,21.99
2022-08-28T12:12:47.282Z,22.02
2022-08-28T12:15:34.154Z,22.03
2022-08-28T12:18:24.896Z,22.07
2022-08-28T12:20:51.420Z,22.10
2022-08-28T12:23:24.120Z,22.16
2022-08-28T12:26:00.706Z,22.19
2022-08-28T12:28:32.811Z,22.22
2022-08-28T12:31:24.692Z,22.26
2022-08-28T12:34:01.915Z,22.31
2022-08-28T12:36:28.536Z,22.36
2022-08-28T12:38:57.221Z,22.41
2022-08-28T12:41:24.784Z,22.46
2022-08-28T12:43:56.845Z,22.48
2022-08-28T12:46:36.906Z,22.51
2022-08-28T12:49:25.416Z,22.53
2022-08-28T12:52:08.973Z,22.55
2022-08-28T12:54:35.689Z,22.60
2022-08-28T12:57:07.979Z,22.62
2022-08-28T12:59:45.119Z,22.66
2022-08-28T13:02:30.441Z,22.68
2022-08-28T13:05:04.132Z,22.70
2022-08-28T13:07:36.096Z,22.75
2022-08-28T13:10:19.806Z,22.75
2022-08-28T13:12:56.106Z,22.78
2022-08-28T13:15:45.290Z,22.77
2022-08-28T13:18:40.588Z,22.82
2022-08-28T13:21:13.205Z,22.86
2022-08-28T13:23:40.511Z,22.92
2022-08-28T13:26:07.645Z,22.96
2022-08-28T13:28:38.963Z,23.00
2022-08-28T13:31:06.024Z,23.07
2022-08-28T13:33:32.697Z,23.12
2022-08-28T13:36:20.025Z,23.17
2022-08-28T13:38:47.058Z,23.25
2022-08-28T13:41:13.672Z,23.31
2022-08-28T13:43:46.076Z,23.37
2022-08-28T13:46:12.906Z,23.44
2022-08-28T13:48:39.584Z,23.49
2022-08-28T13:51:12.026Z,23.55
2022-08-28T13:53:45.804Z,23.63
2022-08-28T13:56:12.375Z,23.69
2022-08-28T13:58:38.959Z,23.76
2022-08-28T14:01:05.778Z,23.83
2022-08-28T14:03:33.047Z,23.90
2022-08-28T14:05:59.813Z,23.94
2022-08-28T14:08:26.457Z,24.00
2022-08-28T14:10:53.004Z,24.04
2022-08-28T14:13:19.682Z,24.05
2022-08-28T14:15:46.275Z,24.08
2022-08-28T14:18:12.922Z,24.11
2022-08-28T14:20:39.818Z,24.13
2022-08-28T14:23:06.514Z,24.14
2022-08-28T14:25:38.497Z,24.17
2022-08-28T14:28:06.034Z,24.19
2022-08-28T14:30:32.589Z,24.23
2022-08-28T14:32:59.348Z,24.27
2022-08-28T14:35:25.926Z,24.34
2022-08-28T14:37:52.507Z,24.42
2022-08-28T14:40:19.157Z,24.54
2022-08-28T14:42:45.773Z,24.66
2022-08-28T14:45:12.325Z,24.76
2022-08-28T14:47:38.857Z,24.89
2022-08-28T14:50:06.572Z,25.01
2022-08-28T14:52:33.155Z,25.10
2022-08-28T14:54:59.696Z,25.21
2022-08-28T14:57:26.306Z,25.26
2022-08-28T14:59:52.902Z,25.30
2022-08-28T15:02:19.785Z,25.31
2022-08-28T15:04:46.439Z,25.29
2022-08-28T15:07:13.127Z,25.27
2022-08-28T15:09:41.932Z,25.26
2022-08-28T15:12:09.925Z,25.23
2022-08-28T15:14:36.911Z,25.20
2022-08-28T15:17:04.322Z,25.13
2022-08-28T15:19:31.335Z,25.11
2022-08-28T15:21:58.188Z,25.09
2022-08-28T15:24:30.059Z,25.15
2022-08-28T15:26:57.326Z,25.25
2022-08-28T15:29:23.884Z,25.30
2022-08-28T15:31:53.448Z,25.34
2022-08-28T15:34:25.962Z,25.34
2022-08-28T15:36:55.619Z,25.32
2022-08-28T15:39:27.812Z,25.28
2022-08-28T15:41:55.203Z,25.23
2022-08-28T15:44:22.006Z,25.10
2022-08-28T15:46:56.981Z,24.92
2022-08-28T15:49:25.584Z,24.69
2022-08-28T15:51:52.600Z,24.44
2022-08-28T15:54:20.867Z,24.22
2022-08-28T15:56:50.767Z,24.02
2022-08-28T15:59:20.602Z,23.86
2022-08-28T16:01:47.400Z,23.75
2022-08-28T16:04:14.701Z,23.69
2022-08-28T16:06:41.688Z,23.66
2022-08-28T16:09:10.388Z,23.66
2022-08-28T16:11:38.661Z,23.68
2022-08-28T16:14:05.375Z,23.70
2022-08-28T16:16:32.409Z,23.72
2022-08-28T16:18:59.120Z,23.73
2022-08-28T16:21:26.855Z,23.76
2022-08-28T16:23:54.882Z,23.77
2022-08-28T16:26:21.971Z,23.80
2022-08-28T16:28:48.538Z,23.81
2022-08-28T16:31:20.372Z,23.82
2022-08-28T16:33:49.761Z,23.82
2022-08-28T16:36:17.283Z,23.87
2022-08-28T16:38:46.669Z,23.99
2022-08-28T16:41:16.945Z,24.23
2022-08-28T16:43:43.587Z,24.47
2022-08-28T16:46:16.787Z,24.76
2022-08-28T16:48:44.754Z,25.04
2022-08-28T16:51:12.325Z,25.30
2022-08-28T16:53:39.611Z,25.55
2022-08-28T16:56:08.299Z,25.81
2022-08-28T16:58:35.319Z,26.03
2022-08-28T17:01:02.078Z,26.23
2022-08-28T17:03:28.837Z,26.34
2022-08-28T17:05:56.466Z,26.42
2022-08-28T17:08:23.204Z,26.45
2022-08-28T17:10:49.798Z,26.52
2022-08-28T17:13:16.440Z,26.56
2022-08-28T17:15:43.287Z,26.61
2022-08-28T17:18:09.901Z,26.62
2022-08-28T17:20:36.521Z,26.65
2022-08-28T17:23:03.439Z,26.65
2022-08-28T17:25:29.989Z,26.61
2022-08-28T17:27:56.540Z,26.56
2022-08-28T17:30:23.236Z,26.53
2022-08-28T17:32:50.308Z,26.46
2022-08-28T17:35:17.393Z,26.36
2022-08-28T17:37:44.594Z,26.23
2022-08-28T17:40:15.695Z,26.08
2022-08-28T17:42:43.822Z,25.90
2022-08-28T17:45:10.726Z,25.69
2022-08-28T17:47:37.473Z,25.51
2022-08-28T17:50:04.297Z,25.30
2022-08-28T17:52:31.657Z,25.09
2022-08-28T17:54:58.283Z,24.89
2022-08-28T17:57:24.908Z,24.72
2022-08-28T17:59:51.591Z,24.51
2022-08-28T18:02:18.314Z,24.33
2022-08-28T18:04:44.908Z,24.17
2022-08-28T18:07:11.687Z,24.02
2022-08-28T18:09:38.401Z,23.88
2022-08-28T18:12:05.117Z,23.78
2022-08-28T18:14:31.840Z,23.69
2022-08-28T18:16:58.492Z,23.60
2022-08-28T18:19:25.175Z,23.52
2022-08-28T18:21:51.800Z,23.46
2022-08-28T18:24:18.592Z,23.41
2022-08-28T18:26:45.268Z,23.36
2022-08-28T18:29:12.111Z,23.32
2022-08-28T18:31:39.398Z,23.26
2022-08-28T18:34:06.280Z,23.21
2022-08-28T18:36:32.969Z,23.16
2022-08-28T18:38:59.743Z,23.12
2022-08-28T18:41:30.654Z,23.08
2022-08-28T18:44:10.341Z,23.02
2022-08-28T18:46:36.943Z,22.96
2022-08-28T18:49:03.951Z,22.90
2022-08-28T18:51:30.576Z,22.85
2022-08-28T18:53:57.187Z,22.77
2022-08-28T18:56:24.265Z,22.71
2022-08-28T18:58:55.126Z,22.66
2022-08-28T19:01:22.209Z,22.59
2022-08-28T19:03:48.905Z,22.53
2022-08-28T19:06:15.908Z,22.46
2022-08-28T19:08:42.731Z,22.40
2022-08-28T19:11:11.664Z,22.36
2022-08-28T19:13:41.126Z,22.29
2022-08-28T19:16:08.694Z,22.25
2022-08-28T19:18:35.388Z,22.18
2022-08-28T19:21:04.518Z,22.14
2022-08-28T19:23:32.468Z,22.08
2022-08-28T19:25:59.013Z,22.03
2022-08-28T19:28:25.700Z,21.98
2022-08-28T19:30:52.811Z,21.92
2022-08-28T19:33:19.841Z,21.88
2022-08-28T19:35:46.715Z,21.81
2022-08-28T19:38:13.470Z,21.78
2022-08-28T19:40:40.139Z,21.73
2022-08-28T19:43:06.854Z,21.67
2022-08-28T19:45:37.347Z,21.63
2022-08-28T19:48:03.982Z,21.59
2022-08-28T19:50:30.637Z,21.53
2022-08-28T19:52:57.490Z,21.49
2022-08-28T19:55:27.461Z,21.45
2022-08-28T19:57:54.861Z,21.41
2022-08-28T20:00:24.878Z,21.36
2022-08-28T20:02:51.891Z,21.34
2022-08-28T20:05:20.064Z,21.32
2022-08-28T20:07:47.045Z,21.31
2022-08-28T20:10:14.865Z,21.30
2022-08-28T20:12:43.193Z,21.28
2022-08-28T20:15:16.357Z,21.29
2022-08-28T20:17:44.009Z,21.26
2022-08-28T20:20:19.198Z,21.29
2022-08-28T20:22:45.993Z,21.28
2022-08-28T20:25:14.810Z,21.25
2022-08-28T20:27:41.818Z,21.27
2022-08-28T20:30:10.471Z,21.26
2022-08-28T20:32:40.153Z,21.25
2022-08-28T20:35:09.853Z,21.23
2022-08-28T20:37:45.375Z,21.20
2022-08-28T20:40:17.486Z,21.20
2022-08-28T20:42:44.843Z,21.17
2022-08-28T20:45:12.851Z,21.16
2022-08-28T20:47:39.418Z,21.13
2022-08-28T20:50:06.834Z,21.13
2022-08-28T20:52:33.612Z,21.12
2022-08-28T20:55:00.153Z,21.10
2022-08-28T20:57:26.754Z,21.08
2022-08-28T20:59:53.338Z,21.07
2022-08-28T21:02:27.037Z,21.05
2022-08-28T21:04:54.747Z,21.02
2022-08-28T21:07:23.775Z,20.99
2022-08-28T21:10:06.804Z,20.96
2022-08-28T21:12:38.426Z,20.93
2022-08-28T21:15:07.653Z,20.90
2022-08-28T21:17:34.433Z,20.86
2022-08-28T21:20:05.299Z,20.82
2022-08-28T21:22:34.569Z,20.79
2022-08-28T21:25:02.928Z,20.74
2022-08-28T21:27:30.378Z,20.69
2022-08-28T21:29:59.308Z,20.65
2022-08-28T21:32:27.190Z,20.62
2022-08-28T21:34:54.290Z,20.58
2022-08-28T21:37:21.103Z,20.52
2022-08-28T21:39:47.713Z,20.47
2022-08-28T21:42:14.247Z,20.44
2022-08-28T21:44:40.884Z,20.40
2022-08-28T21:47:18.584Z,20.34
2022-08-28T21:49:48.332Z,20.31
2022-08-28T21:52:14.984Z,20.28
2022-08-28T21:54:41.529Z,20.26
2022-08-28T21:57:08.183Z,20.24
2022-08-28T21:59:37.793Z,20.20
2022-08-28T22:02:05.287Z,20.17
2022-08-28T22:04:31.995Z,20.15
2022-08-28T22:06:58.945Z,20.14
2022-08-28T22:09:25.631Z,20.11
2022-08-28T22:11:52.466Z,20.09
2022-08-28T22:14:19.149Z,20.07
2022-08-28T22:16:45.746Z,20.05
2022-08-28T22:19:12.328Z,20.03
2022-08-28T22:21:39.002Z,20.03
2022-08-28T22:24:06.120Z,19.99
2022-08-28T22:26:32.913Z,19.97
2022-08-28T22:28:59.496Z,19.96
2022-08-28T22:31:26.404Z,19.92
2022-08-28T22:33:53.657Z,19.89
2022-08-28T22:36:22.013Z,19.85
2022-08-28T22:38:52.990Z,19.82
2022-08-28T22:41:20.222Z,19.80
2022-08-28T22:43:50.744Z,19.76
2022-08-28T22:46:18.923Z,19.75
2022-08-28T22:48:45.600Z,19.72
2022-08-28T22:51:14.573Z,19.70
2022-08-28T22:53:42.905Z,19.67
2022-08-28T22:56:11.023Z,19.64
2022-08-28T22:58:38.082Z,19.50
2022-08-28T23:01:09.258Z,19.58
2022-08-28T23:03:36.390Z,19.58
2022-08-28T23:06:03.317Z,19.55
2022-08-28T23:08:33.871Z,19.53
2022-08-28T23:11:01.183Z,19.50
2022-08-28T23:13:28.582Z,19.48
2022-08-28T23:15:55.339Z,19.45
2022-08-28T23:18:21.871Z,19.45
2022-08-28T23:20:50.634Z,19.42
2022-08-28T23:23:18.944Z,19.40
2022-08-28T23:25:45.487Z,19.38
2022-08-28T23:28:12.447Z,19.36
2022-08-28T23:30:39.749Z,19.35
2022-08-28T23:33:08.391Z,19.32
2022-08-28T23:35:36.543Z,19.30
2022-08-28T23:38:04.130Z,19.28
2022-08-28T23:40:32.645Z,19.27
2022-08-28T23:42:59.549Z,19.26
2022-08-28T23:45:27.339Z,19.24
2022-08-28T23:47:54.770Z,19.22
2022-08-28T23:50:23.736Z,19.20
2022-08-28T23:52:51.686Z,19.18
2022-08-28T23:55:19.667Z,19.16
2022-08-28T23:57:46.718Z,19.13
